createdAt,value
2023-01-17T00:01:41.865Z,18.10
2023-01-17T00:04:38.604Z,3.75
2023-01-17T00:07:30.755Z,1.98
2023-01-17T00:10:07.658Z,6.88
2023-01-17T00:12:46.550Z,2.80
2023-01-17T00:15:23.781Z,9.73
2023-01-17T00:17:57.656Z,7.95
2023-01-17T00:20:50.983Z,2.22
2023-01-17T00:23:43.438Z,2.20
2023-01-17T00:26:18.452Z,3.50
2023-01-17T00:28:51.027Z,3.80
2023-01-17T00:31:24.713Z,3.25
2023-01-17T00:33:57.186Z,6.38
2023-01-17T00:39:01.584Z,4.23
2023-01-17T00:44:25.017Z,6.32
2023-01-17T00:47:16.975Z,4.28
2023-01-17T00:50:08.134Z,6.18
2023-01-17T00:52:59.064Z,6.95
2023-01-17T00:55:51.872Z,5.90
2023-01-17T00:58:42.637Z,6.50
2023-01-17T01:01:33.773Z,6.82
2023-01-17T01:04:26.267Z,2.53
2023-01-17T01:07:17.411Z,5.13
2023-01-17T01:10:08.350Z,5.72
2023-01-17T01:12:59.491Z,7.20
2023-01-17T01:15:50.540Z,6.30
2023-01-17T01:18:41.543Z,3.72
2023-01-17T01:21:33.584Z,5.55
2023-01-17T01:24:25.261Z,5.90
2023-01-17T01:27:16.199Z,7.65
2023-01-17T01:30:07.236Z,5.07
2023-01-17T01:32:58.143Z,6.40
2023-01-17T01:35:31.825Z,4.70
2023-01-17T01:38:06.790Z,6.95
2023-01-17T01:40:45.443Z,6.22
2023-01-17T01:43:20.427Z,6.93
2023-01-17T01:45:57.905Z,4.15
2023-01-17T01:48:39.457Z,7.53
2023-01-17T01:51:17.021Z,4.70
2023-01-17T01:53:55.729Z,7.18
2023-01-17T01:56:31.812Z,5.53
2023-01-17T01:59:08.474Z,9.10
2023-01-17T02:01:42.344Z,5.30
2023-01-17T02:04:16.335Z,5.15
2023-01-17T02:06:53.039Z,4.97
2023-01-17T02:09:28.955Z,5.60
2023-01-17T02:12:03.740Z,5.28
2023-01-17T02:14:37.231Z,4.63
2023-01-17T02:17:24.659Z,5.43
2023-01-17T02:20:46.492Z,6.57
2023-01-17T02:23:59.420Z,6.55
2023-01-17T02:26:58.437Z,11.20
2023-01-17T02:30:07.732Z,6.68
2023-01-17T02:32:52.518Z,7.07
2023-01-17T02:35:31.235Z,9.68
2023-01-17T02:38:15.968Z,5.90
2023-01-17T02:40:53.403Z,6.15
2023-01-17T02:43:28.235Z,6.35
2023-01-17T02:46:01.759Z,7.05
2023-01-17T02:48:38.141Z,11.73
2023-01-17T02:51:42.116Z,7.57
2023-01-17T02:54:35.676Z,3.72
2023-01-17T02:57:25.335Z,5.13
2023-01-17T03:00:04.684Z,6.90
2023-01-17T03:02:47.750Z,6.03
2023-01-17T03:05:30.048Z,5.22
2023-01-17T03:08:04.933Z,2.80
2023-01-17T03:10:39.086Z,5.47
2023-01-17T03:13:12.652Z,3.92
2023-01-17T03:15:47.065Z,6.03
2023-01-17T03:18:20.721Z,4.82
2023-01-17T03:20:55.599Z,4.20
2023-01-17T03:23:29.119Z,4.47
2023-01-17T03:26:02.793Z,3.78
2023-01-17T03:28:36.268Z,2.08
2023-01-17T03:31:10.216Z,2.10
2023-01-17T03:33:43.741Z,3.20
2023-01-17T03:36:20.513Z,2.92
2023-01-17T03:38:53.968Z,2.75
2023-01-17T03:41:27.785Z,5.10
2023-01-17T03:44:02.020Z,8.20
2023-01-17T03:46:36.455Z,3.22
2023-01-17T03:49:11.266Z,3.53
2023-01-17T03:51:46.144Z,4.45
2023-01-17T03:54:19.611Z,5.68
2023-01-17T03:56:53.431Z,4.80
2023-01-17T03:59:26.892Z,2.85
2023-01-17T04:02:00.576Z,2.83
2023-01-17T04:04:34.170Z,3.03
2023-01-17T04:07:09.209Z,3.95
2023-01-17T04:09:42.674Z,2.53
2023-01-17T04:12:16.453Z,3.70
2023-01-17T04:14:49.921Z,3.40
2023-01-17T04:17:23.794Z,2.03
2023-01-17T04:19:57.721Z,2.22
2023-01-17T04:22:32.676Z,1.70
2023-01-17T04:25:06.799Z,1.27
2023-01-17T04:27:40.242Z,2.50
2023-01-17T04:30:14.571Z,9.02
2023-01-17T04:32:48.043Z,2.08
2023-01-17T04:35:21.920Z,2.75
2023-01-17T04:37:56.815Z,2.17
2023-01-17T04:40:30.871Z,2.45
2023-01-17T04:43:04.334Z,1.55
2023-01-17T04:45:38.821Z,2.92
2023-01-17T04:48:12.917Z,2.38
2023-01-17T04:50:46.597Z,2.00
2023-01-17T04:53:21.478Z,1.70
2023-01-17T04:55:54.977Z,2.33
2023-01-17T04:58:28.793Z,3.05
2023-01-17T05:01:06.401Z,2.47
2023-01-17T05:03:40.305Z,5.28
2023-01-17T05:06:13.755Z,1.60
2023-01-17T05:08:48.949Z,1.95
2023-01-17T05:11:22.579Z,2.50
2023-01-17T05:13:56.049Z,1.77
2023-01-17T05:16:29.689Z,2.58
2023-01-17T05:19:03.234Z,2.88
2023-01-17T05:21:37.058Z,3.55
2023-01-17T05:24:11.969Z,2.30
2023-01-17T05:26:46.131Z,2.65
2023-01-17T05:29:20.404Z,2.90
2023-01-17T05:31:53.860Z,2.35
2023-01-17T05:34:27.805Z,2.65
2023-01-17T05:37:01.295Z,4.53
2023-01-17T05:39:36.349Z,4.82
2023-01-17T05:42:10.061Z,2.28
2023-01-17T05:44:43.508Z,3.58
2023-01-17T05:47:17.140Z,3.72
2023-01-17T05:49:50.616Z,4.32
2023-01-17T05:52:24.174Z,4.53
2023-01-17T05:54:59.441Z,1.90
2023-01-17T05:57:32.894Z,3.08
2023-01-17T06:00:07.759Z,2.90
2023-01-17T06:02:41.422Z,5.60
2023-01-17T06:05:15.849Z,6.18
2023-01-17T06:07:49.956Z,5.80
2023-01-17T06:10:25.684Z,3.95
2023-01-17T06:13:03.636Z,6.25
2023-01-17T06:15:38.643Z,5.65
2023-01-17T06:18:13.693Z,4.88
2023-01-17T06:20:47.484Z,4.93
2023-01-17T06:23:20.944Z,3.92
2023-01-17T06:25:55.855Z,5.07
2023-01-17T06:28:29.332Z,9.45
2023-01-17T06:31:07.624Z,10.02
2023-01-17T06:33:41.119Z,11.45
2023-01-17T06:36:14.785Z,7.03
2023-01-17T06:38:51.859Z,6.47
2023-01-17T06:41:27.004Z,8.35
2023-01-17T06:44:00.501Z,6.35
2023-01-17T06:46:34.171Z,9.65
2023-01-17T06:49:07.639Z,7.75
2023-01-17T06:51:43.516Z,6.90
2023-01-17T06:54:17.226Z,10.75
2023-01-17T06:56:52.110Z,7.65
2023-01-17T06:59:25.585Z,13.88
2023-01-17T07:01:59.104Z,10.13
2023-01-17T07:04:32.960Z,14.35
2023-01-17T07:07:06.558Z,11.93
2023-01-17T07:09:40.185Z,15.20
2023-01-17T07:12:15.408Z,14.85
2023-01-17T07:14:48.911Z,13.32
2023-01-17T07:17:22.469Z,11.68
2023-01-17T07:19:55.932Z,15.18
2023-01-17T07:22:29.569Z,18.63
2023-01-17T07:25:03.028Z,18.98
2023-01-17T07:27:37.875Z,15.15
2023-01-17T07:30:12.465Z,15.95
2023-01-17T07:32:45.890Z,14.25
2023-01-17T07:35:19.920Z,25.65
2023-01-17T07:37:53.553Z,25.70
2023-01-17T07:40:27.287Z,26.23
2023-01-17T07:43:03.679Z,23.60
2023-01-17T07:45:38.132Z,20.60
2023-01-17T07:48:12.631Z,23.77
2023-01-17T07:50:46.141Z,23.73
2023-01-17T07:53:19.769Z,25.98
2023-01-17T07:55:53.619Z,25.40
2023-01-17T07:58:28.594Z,22.35
2023-01-17T08:01:07.427Z,27.85
2023-01-17T08:03:41.687Z,23.52
2023-01-17T08:06:19.843Z,27.83
2023-01-17T08:08:55.155Z,20.55
2023-01-17T08:11:28.874Z,40.85
2023-01-17T08:14:03.898Z,37.17
2023-01-17T08:16:38.206Z,30.08
2023-01-17T08:19:11.868Z,38.10
2023-01-17T08:21:45.545Z,25.88
2023-01-17T08:24:19.081Z,29.88
2023-01-17T08:26:54.982Z,24.02
2023-01-17T08:29:29.965Z,46.55
2023-01-17T08:32:03.508Z,9.35
2023-01-17T08:34:37.012Z,11.70
2023-01-17T08:37:10.509Z,6.22
2023-01-17T08:39:44.774Z,4.43
2023-01-17T08:42:18.498Z,3.25
2023-01-17T08:44:53.414Z,2.60
2023-01-17T08:47:27.952Z,2.30
2023-01-17T08:50:02.273Z,1.23
2023-01-17T08:52:36.183Z,1.70
2023-01-17T08:55:11.668Z,0.90
2023-01-17T08:57:45.807Z,1.02
2023-01-17T09:00:21.774Z,2.28
2023-01-17T09:02:55.328Z,1.55
2023-01-17T09:05:28.972Z,1.15
2023-01-17T09:08:02.478Z,0.98
2023-01-17T09:10:36.037Z,0.60
2023-01-17T09:13:09.542Z,0.70
2023-01-17T09:15:44.428Z,0.88
2023-01-17T09:18:17.900Z,1.45
2023-01-17T09:20:54.888Z,0.85
2023-01-17T09:23:31.019Z,1.00
2023-01-17T09:26:04.746Z,0.98
2023-01-17T09:28:41.131Z,0.80
2023-01-17T09:31:17.586Z,1.10
2023-01-17T09:33:52.104Z,1.55
2023-01-17T09:36:28.841Z,0.60
2023-01-17T09:39:03.428Z,0.85
2023-01-17T09:41:45.332Z,0.77
2023-01-17T09:44:26.737Z,0.90
2023-01-17T09:47:08.748Z,0.90
2023-01-17T09:49:44.923Z,0.70
2023-01-17T09:52:23.343Z,2.72
2023-01-17T09:54:56.886Z,1.55
2023-01-17T09:57:42.317Z,0.60
2023-01-17T10:00:32.717Z,1.40
2023-01-17T10:03:32.985Z,0.95
2023-01-17T10:06:20.333Z,2.22
2023-01-17T10:09:08.865Z,1.75
2023-01-17T10:11:55.434Z,1.45
2023-01-17T10:14:50.723Z,4.63
2023-01-17T10:17:36.357Z,0.90
2023-01-17T10:20:25.863Z,1.10
2023-01-17T10:23:12.914Z,2.75
2023-01-17T10:25:49.789Z,1.38
2023-01-17T10:28:28.848Z,1.83
2023-01-17T10:31:06.185Z,0.98
2023-01-17T10:33:46.086Z,1.25
2023-01-17T10:36:23.409Z,1.23
2023-01-17T10:38:58.923Z,2.03
2023-01-17T10:41:37.975Z,1.60
2023-01-17T10:44:20.837Z,0.73
2023-01-17T10:46:59.538Z,1.00
2023-01-17T10:49:33.567Z,1.35
2023-01-17T10:52:19.858Z,1.65
2023-01-17T10:55:05.248Z,1.95
2023-01-17T10:57:42.739Z,0.47
2023-01-17T11:00:32.750Z,1.08
2023-01-17T11:03:07.690Z,1.15
2023-01-17T11:05:42.940Z,2.97
2023-01-17T11:08:17.961Z,4.50
2023-01-17T11:10:54.507Z,11.40
2023-01-17T11:13:32.991Z,12.15
2023-01-17T11:16:10.779Z,0.95
2023-01-17T11:18:44.931Z,3.25
2023-01-17T11:21:23.372Z,4.03
2023-01-17T11:23:58.449Z,1.83
2023-01-17T11:26:33.905Z,1.48
2023-01-17T11:29:27.725Z,2.70
2023-01-17T11:32:31.046Z,2.47
2023-01-17T11:35:25.598Z,1.48
2023-01-17T11:38:05.555Z,3.85
2023-01-17T11:40:43.324Z,0.38
2023-01-17T11:43:23.443Z,2.58
2023-01-17T11:46:06.711Z,2.83
2023-01-17T11:48:40.393Z,5.60
2023-01-17T11:51:26.217Z,3.85
2023-01-17T11:54:14.967Z,4.15
2023-01-17T11:56:51.907Z,3.38
2023-01-17T11:59:31.427Z,8.52
2023-01-17T12:02:31.890Z,6.88
2023-01-17T12:05:18.449Z,4.00
2023-01-17T12:07:59.277Z,2.40
2023-01-17T12:10:38.848Z,3.63
2023-01-17T12:13:46.440Z,4.28
2023-01-17T12:16:33.092Z,3.92
2023-01-17T12:19:21.672Z,2.35
2023-01-17T12:22:15.063Z,6.82
2023-01-17T12:25:00.373Z,1.70
2023-01-17T12:27:43.501Z,2.03
2023-01-17T12:30:31.778Z,4.55
2023-01-17T12:33:19.345Z,4.55
2023-01-17T12:35:57.082Z,1.73
2023-01-17T12:38:39.959Z,1.42
2023-01-17T12:41:19.109Z,1.30
2023-01-17T12:43:57.244Z,2.58
2023-01-17T12:46:38.950Z,1.88
2023-01-17T12:49:24.113Z,0.60
2023-01-17T12:52:05.015Z,1.35
2023-01-17T12:54:42.804Z,2.58
2023-01-17T12:57:21.056Z,2.40
2023-01-17T13:00:04.252Z,1.80
2023-01-17T13:02:42.731Z,2.30
2023-01-17T13:05:23.683Z,1.52
2023-01-17T13:08:03.626Z,4.07
2023-01-17T13:10:43.443Z,3.60
2023-01-17T13:13:22.496Z,3.13
2023-01-17T13:15:58.925Z,1.77
2023-01-17T13:18:33.832Z,0.70
2023-01-17T13:21:28.424Z,8.32
2023-01-17T13:24:22.212Z,2.65
2023-01-17T13:27:16.632Z,2.47
2023-01-17T13:30:05.448Z,3.85
2023-01-17T13:33:08.274Z,10.60
2023-01-17T13:35:51.575Z,2.75
2023-01-17T13:38:43.890Z,0.77
2023-01-17T13:41:36.950Z,2.58
2023-01-17T13:47:04.267Z,3.88
2023-01-17T13:49:48.548Z,6.50
2023-01-17T13:52:33.639Z,4.03
2023-01-17T13:55:07.968Z,7.18
2023-01-17T13:57:44.015Z,5.75
2023-01-17T14:00:51.903Z,6.05
2023-01-17T14:04:01.616Z,5.55
2023-01-17T14:06:41.804Z,6.95
2023-01-17T14:09:23.827Z,11.73
2023-01-17T14:12:08.513Z,15.05
2023-01-17T14:14:51.242Z,25.70
2023-01-17T14:21:03.649Z,58.40
2023-01-17T14:24:04.562Z,24.90
2023-01-17T14:26:45.370Z,35.88
2023-01-17T14:29:49.974Z,27.17
2023-01-17T14:32:27.720Z,22.70
2023-01-17T14:35:01.485Z,8.20
2023-01-17T14:37:44.362Z,18.88
2023-01-17T14:40:20.938Z,11.23
2023-01-17T14:43:02.390Z,15.75
2023-01-17T14:45:37.278Z,11.65
2023-01-17T14:48:20.785Z,10.52
2023-01-17T14:50:57.447Z,12.60
2023-01-17T14:53:32.595Z,4.88
2023-01-17T14:56:15.150Z,7.40
2023-01-17T15:01:25.733Z,5.38
2023-01-17T15:03:59.391Z,9.45
2023-01-17T15:06:38.539Z,7.32
2023-01-17T15:09:12.571Z,13.68
2023-01-17T15:11:47.843Z,15.10
2023-01-17T15:14:24.757Z,13.55
2023-01-17T15:16:58.361Z,21.65
2023-01-17T15:19:42.820Z,18.88
2023-01-17T15:22:17.381Z,21.73
2023-01-17T15:24:51.605Z,29.15
2023-01-17T15:27:25.316Z,30.75
2023-01-17T15:30:02.809Z,38.40
2023-01-17T15:32:38.671Z,39.47
2023-01-17T15:35:18.433Z,38.80
2023-01-17T15:37:58.338Z,29.38
2023-01-17T15:40:33.227Z,41.33
2023-01-17T15:43:06.990Z,45.58
2023-01-17T15:45:41.950Z,34.88
2023-01-17T15:48:37.982Z,43.55
2023-01-17T15:51:13.431Z,56.63
2023-01-17T15:53:46.925Z,83.88
2023-01-17T15:56:23.717Z,101.45
2023-01-17T15:59:12.325Z,88.97
2023-01-17T16:01:56.327Z,83.90
2023-01-17T16:04:37.206Z,58.38
2023-01-17T16:07:12.500Z,22.58
2023-01-17T16:09:46.322Z,18.27
2023-01-17T16:12:19.783Z,28.80
2023-01-17T16:15:10.868Z,32.20
2023-01-17T16:17:50.989Z,29.02
2023-01-17T16:20:30.960Z,24.40
2023-01-17T16:23:04.564Z,33.03
2023-01-17T16:25:38.401Z,34.05
2023-01-17T16:28:11.999Z,42.15
2023-01-17T16:30:46.198Z,40.28
2023-01-17T16:33:21.171Z,42.30
2023-01-17T16:35:55.655Z,43.60
2023-01-17T16:38:29.159Z,52.92
2023-01-17T16:41:05.700Z,49.35
2023-01-17T16:43:39.395Z,41.95
2023-01-17T16:46:13.383Z,49.45
2023-01-17T16:48:48.366Z,87.53
2023-01-17T16:51:22.507Z,84.43
2023-01-17T16:53:56.075Z,96.15
2023-01-17T16:56:29.662Z,77.18
2023-01-17T16:59:03.333Z,65.75
2023-01-17T17:01:36.991Z,71.57
2023-01-17T17:04:13.009Z,69.30
2023-01-17T17:06:46.579Z,69.72
2023-01-17T17:09:21.947Z,78.28
2023-01-17T17:11:55.685Z,94.45
2023-01-17T17:14:29.375Z,85.80
2023-01-17T17:17:02.879Z,79.82
2023-01-17T17:19:38.061Z,88.90
2023-01-17T17:22:11.840Z,85.50
2023-01-17T17:24:45.354Z,94.22
2023-01-17T17:27:18.825Z,120.00
2023-01-17T17:29:52.626Z,107.90
2023-01-17T17:32:26.141Z,123.60
2023-01-17T17:35:03.614Z,103.95
2023-01-17T17:37:37.541Z,172.10
2023-01-17T17:40:12.209Z,115.03
2023-01-17T17:42:46.013Z,115.97
2023-01-17T17:45:19.578Z,89.00
2023-01-17T17:47:53.258Z,102.18
2023-01-17T17:50:28.408Z,104.78
2023-01-17T17:53:02.197Z,103.72
2023-01-17T17:55:36.431Z,131.25
2023-01-17T17:58:09.968Z,97.88
2023-01-17T18:00:43.487Z,87.50
2023-01-17T18:03:17.015Z,129.15
2023-01-17T18:05:51.885Z,139.82
2023-01-17T18:08:25.348Z,106.32
2023-01-17T18:11:00.277Z,111.95
2023-01-17T18:13:34.667Z,121.97
2023-01-17T18:16:09.942Z,93.40
2023-01-17T18:18:47.732Z,101.38
2023-01-17T18:21:25.343Z,122.85
2023-01-17T18:24:01.004Z,118.07
2023-01-17T18:26:36.161Z,136.73
2023-01-17T18:29:11.277Z,166.45
2023-01-17T18:31:45.576Z,185.35
2023-01-17T18:34:23.864Z,129.25
2023-01-17T18:36:59.226Z,138.50
2023-01-17T18:39:33.052Z,180.00
2023-01-17T18:42:06.840Z,122.03
2023-01-17T18:44:40.451Z,136.68
2023-01-17T18:47:14.042Z,251.13
2023-01-17T18:49:47.613Z,245.07
2023-01-17T18:52:22.680Z,230.48
2023-01-17T18:54:56.238Z,275.25
2023-01-17T18:57:29.723Z,295.02
2023-01-17T19:00:03.562Z,286.60
2023-01-17T19:02:37.233Z,196.85
2023-01-17T19:05:11.992Z,172.73
2023-01-17T19:07:46.861Z,120.70
2023-01-17T19:10:20.458Z,106.03
2023-01-17T19:12:53.960Z,88.90
2023-01-17T19:15:27.506Z,114.38
2023-01-17T19:18:01.031Z,114.20
2023-01-17T19:20:36.462Z,112.90
2023-01-17T19:23:11.437Z,133.77
2023-01-17T19:25:44.948Z,103.10
2023-01-17T19:28:18.429Z,115.47
2023-01-17T19:31:01.928Z,115.38
2023-01-17T19:33:36.724Z,192.70
2023-01-17T19:36:14.138Z,154.57
2023-01-17T19:39:03.066Z,99.88
2023-01-17T19:41:39.037Z,154.13
2023-01-17T19:44:14.336Z,195.60
2023-01-17T19:46:48.761Z,176.90
2023-01-17T19:49:24.710Z,157.18
2023-01-17T19:51:58.443Z,215.07
2023-01-17T19:54:33.477Z,365.75
2023-01-17T19:57:07.025Z,253.88
2023-01-17T19:59:40.612Z,268.85
2023-01-17T20:02:14.199Z,392.98
2023-01-17T20:04:48.611Z,304.02
2023-01-17T20:07:22.649Z,314.95
2023-01-17T20:09:57.940Z,270.58
2023-01-17T20:12:32.444Z,261.17
2023-01-17T20:15:07.373Z,266.88
2023-01-17T20:17:41.088Z,277.40
2023-01-17T20:20:15.918Z,191.90
2023-01-17T20:22:50.277Z,119.32
2023-01-17T20:25:25.387Z,96.30
2023-01-17T20:27:59.333Z,88.10
2023-01-17T20:30:33.253Z,170.32
2023-01-17T20:33:09.044Z,177.25
2023-01-17T20:35:42.815Z,191.15
2023-01-17T20:38:16.592Z,145.95
2023-01-17T20:41:09.942Z,134.90
2023-01-17T20:43:44.445Z,144.95
2023-01-17T20:46:18.996Z,109.22
2023-01-17T20:48:54.905Z,93.72
2023-01-17T20:51:30.725Z,116.45
2023-01-17T20:54:04.352Z,113.10
2023-01-17T20:56:39.307Z,112.78
2023-01-17T20:59:15.422Z,123.88
2023-01-17T21:01:49.391Z,83.00
2023-01-17T21:04:25.916Z,79.10
2023-01-17T21:06:59.493Z,98.95
2023-01-17T21:09:33.021Z,85.25
2023-01-17T21:12:07.972Z,90.53
2023-01-17T21:14:43.018Z,69.22
2023-01-17T21:17:19.405Z,63.88
2023-01-17T21:19:52.946Z,65.95
2023-01-17T21:22:26.647Z,61.58
2023-01-17T21:25:00.679Z,97.80
2023-01-17T21:27:35.597Z,75.32
2023-01-17T21:30:10.644Z,89.18
2023-01-17T21:32:44.182Z,86.30
2023-01-17T21:35:17.836Z,82.22
2023-01-17T21:37:51.658Z,87.70
2023-01-17T21:40:25.140Z,71.95
2023-01-17T21:43:00.089Z,52.28
2023-01-17T21:45:37.178Z,69.40
2023-01-17T21:48:13.246Z,55.17
2023-01-17T21:50:47.371Z,48.00
2023-01-17T21:53:20.923Z,59.75
2023-01-17T21:56:11.816Z,56.65
2023-01-17T21:58:48.230Z,46.45
2023-01-17T22:01:23.425Z,44.65
2023-01-17T22:03:58.872Z,19.10
2023-01-17T22:06:35.455Z,22.65
2023-01-17T22:09:09.405Z,26.73
2023-01-17T22:11:42.898Z,19.98
2023-01-17T22:14:19.628Z,23.48
2023-01-17T22:16:53.532Z,22.75
2023-01-17T22:19:27.035Z,16.25
2023-01-17T22:22:00.577Z,23.75
2023-01-17T22:24:34.084Z,28.45
2023-01-17T22:27:09.846Z,17.70
2023-01-17T22:29:44.721Z,27.52
2023-01-17T22:32:18.205Z,20.50
2023-01-17T22:34:51.883Z,19.38
2023-01-17T22:37:25.406Z,17.20
2023-01-17T22:40:00.301Z,14.63
2023-01-17T22:42:35.582Z,19.75
2023-01-17T22:45:11.579Z,11.98
2023-01-17T22:47:45.051Z,11.95
2023-01-17T22:50:19.102Z,8.60
2023-01-17T22:52:52.786Z,5.35
2023-01-17T22:55:26.307Z,5.75
2023-01-17T22:57:59.771Z,5.47
2023-01-17T23:00:35.716Z,5.93
2023-01-17T23:03:09.480Z,5.45
2023-01-17T23:05:46.756Z,7.22
2023-01-17T23:08:20.424Z,8.52
2023-01-17T23:11:11.582Z,13.15
2023-01-17T23:13:45.074Z,18.85
2023-01-17T23:16:37.486Z,10.23
2023-01-17T23:19:26.258Z,17.02
2023-01-17T23:22:18.812Z,13.07
2023-01-17T23:24:54.823Z,15.57
2023-01-17T23:27:55.735Z,18.67
2023-01-17T23:30:35.507Z,14.73
2023-01-17T23:33:12.583Z,18.20
2023-01-17T23:35:47.771Z,17.40
2023-01-17T23:38:29.354Z,23.73
2023-01-17T23:41:30.751Z,19.33
2023-01-17T23:44:04.245Z,21.75
2023-01-17T23:46:38.162Z,13.20
2023-01-17T23:49:13.222Z,18.55
2023-01-17T23:51:46.656Z,19.55
2023-01-17T23:54:20.954Z,17.35
2023-01-17T23:56:54.531Z,21.50
2023-01-17T23:59:28.040Z,15.98
